Time;durP1;ratioP1;P1;durP2;ratioP2;P2;SDS_P1;SDS_P2;PMS_P1;PMS_P2;Temp;Humidity;BMP_temperature;BMP_pressure;BME280_temperature;BME280_humidity;BME280_pressure;Samples;Min_cycle;Max_cycle;Signal;HPM_P1;HPM_P2
2022/06/13 00:00:13;;;;;;;6.73;2.33;;;;;13.80;101478.00;;;;4851237;29;20217;-67
2022/06/13 00:03:00;;;;;;;3.10;1.93;;;;;13.70;101468.00;;;;4855871;29;20444;-68
2022/06/13 00:05:51;;;;;;;3.00;2.20;;;;;13.60;101466.00;;;;4849649;29;20566;-68
2022/06/13 00:08:38;;;;;;;3.93;2.33;;;;;13.50;101463.00;;;;4853825;29;20243;-69
2022/06/13 00:11:26;;;;;;;3.40;2.37;;;;;13.60;101469.00;;;;4855391;29;21065;-68
2022/06/13 00:14:14;;;;;;;5.90;2.47;;;;;13.60;101478.00;;;;4851666;29;20288;-68
2022/06/13 00:17:01;;;;;;;6.03;2.80;;;;;13.50;101463.00;;;;4854755;29;20214;-68
2022/06/13 00:19:47;;;;;;;7.27;2.30;;;;;13.40;101467.00;;;;4851124;29;20211;-68
2022/06/13 00:22:33;;;;;;;2.60;2.03;;;;;13.20;101460.00;;;;4854470;29;20235;-68
2022/06/13 00:25:20;;;;;;;4.77;2.27;;;;;13.20;101474.00;;;;4854260;29;20208;-67
2022/06/13 00:28:06;;;;;;;6.33;2.20;;;;;13.10;101466.00;;;;4854949;29;20247;-67
2022/06/13 00:30:53;;;;;;;4.57;2.50;;;;;13.10;101454.00;;;;4852807;29;20227;-68
2022/06/13 00:33:40;;;;;;;3.30;2.30;;;;;13.00;101457.00;;;;4853444;29;20219;-67
2022/06/13 00:36:26;;;;;;;4.40;2.30;;;;;13.00;101455.00;;;;4853156;29;20230;-68
2022/06/13 00:39:13;;;;;;;5.73;2.70;;;;;13.00;101453.00;;;;4851603;29;20300;-68
2022/06/13 00:41:59;;;;;;;5.93;2.23;;;;;13.00;101440.00;;;;4854063;29;20239;-68
2022/06/13 00:45:07;;;;;;;4.20;2.30;;;;;13.00;101447.00;;;;4853981;29;20212;-68
2022/06/13 00:47:56;;;;;;;2.80;2.10;;;;;13.00;101454.00;;;;4853750;29;20239;-69
2022/06/13 00:50:47;;;;;;;4.70;2.43;;;;;12.90;101447.00;;;;4858893;29;20611;-68
2022/06/13 00:53:36;;;;;;;6.17;2.10;;;;;12.80;101439.00;;;;4853449;29;20572;-68
2022/06/13 00:56:26;;;;;;;3.70;1.90;;;;;12.80;101439.00;;;;4853639;29;20211;-68
2022/06/13 00:59:15;;;;;;;2.80;2.07;;;;;12.70;101437.00;;;;4853941;29;20568;-68
2022/06/13 01:02:01;;;;;;;3.27;2.37;;;;;12.80;101436.00;;;;4855303;29;20231;-68
2022/06/13 01:04:52;;;;;;;2.67;2.00;;;;;12.80;101438.00;;;;4854781;29;20837;-68
2022/06/13 01:07:39;;;;;;;2.80;2.07;;;;;12.70;101440.00;;;;4854262;29;20231;-69
2022/06/13 01:13:40;;;;;;;2.80;2.40;;;;;12.60;101440.00;;;;4852760;29;20749;-68
2022/06/13 01:16:35;;;;;;;3.67;2.20;;;;;12.50;101440.00;;;;4852991;29;20287;-68
2022/06/13 01:19:54;;;;;;;3.07;2.10;;;;;12.50;101435.00;;;;4854300;29;20277;-68
2022/06/13 01:23:02;;;;;;;3.67;2.37;;;;;12.50;101446.00;;;;4854105;29;20236;-66
2022/06/13 01:26:12;;;;;;;4.10;2.50;;;;;12.60;101443.00;;;;4853977;29;20260;-68
2022/06/13 01:29:42;;;;;;;7.47;2.60;;;;;12.60;101432.00;;;;4848426;29;20868;-69
2022/06/13 01:32:45;;;;;;;3.43;2.17;;;;;12.70;101433.00;;;;4828710;29;20227;-68
2022/06/13 01:35:43;;;;;;;2.10;1.93;;;;;12.80;101423.00;;;;4852926;29;20839;-68
2022/06/13 01:38:50;;;;;;;3.83;2.23;;;;;12.90;101427.00;;;;4853984;29;20219;-68
2022/06/13 01:41:41;;;;;;;5.20;2.53;;;;;12.90;101422.00;;;;4853647;29;20235;-69
2022/06/13 01:44:37;;;;;;;2.90;2.10;;;;;12.90;101427.00;;;;4853979;29;20573;-68
2022/06/13 01:47:33;;;;;;;4.90;2.50;;;;;12.90;101428.00;;;;4853970;29;20210;-67
2022/06/13 01:50:31;;;;;;;6.20;2.47;;;;;12.90;101423.00;;;;4853247;29;20378;-68
2022/06/13 01:53:23;;;;;;;7.97;2.33;;;;;12.80;101421.00;;;;4854236;29;20215;-68
2022/06/13 01:56:11;;;;;;;3.57;2.53;;;;;12.80;101422.00;;;;4850310;29;20227;-69
2022/06/13 01:59:03;;;;;;;2.70;2.40;;;;;12.70;101433.00;;;;4850352;29;20208;-68
2022/06/13 02:01:53;;;;;;;8.47;2.23;;;;;12.60;101439.00;;;;4847014;29;20231;-68
2022/06/13 02:04:43;;;;;;;6.60;2.53;;;;;12.50;101430.00;;;;4853276;29;20812;-67
2022/06/13 02:07:39;;;;;;;5.10;2.37;;;;;12.40;101437.00;;;;4853713;29;20272;-67
2022/06/13 02:10:49;;;;;;;3.60;2.40;;;;;12.50;101434.00;;;;4853329;29;20292;-67
2022/06/13 02:13:40;;;;;;;7.90;2.67;;;;;12.40;101427.00;;;;4852952;29;20809;-68
2022/06/13 02:16:33;;;;;;;3.40;2.70;;;;;12.40;101422.00;;;;4853731;29;20215;-69
2022/06/13 02:19:25;;;;;;;6.73;2.60;;;;;12.40;101426.00;;;;4853607;29;20321;-67
2022/06/13 02:22:17;;;;;;;4.03;2.40;;;;;12.50;101424.00;;;;4853353;29;20716;-68
2022/06/13 02:25:10;;;;;;;4.03;2.70;;;;;12.40;101424.00;;;;4852949;29;20283;-67
2022/06/13 02:27:59;;;;;;;4.37;2.73;;;;;12.30;101433.00;;;;4849489;29;20215;-68
2022/06/13 02:30:49;;;;;;;5.37;2.60;;;;;12.30;101433.00;;;;4846040;29;20208;-67
2022/06/13 02:33:41;;;;;;;5.97;2.20;;;;;12.30;101426.00;;;;4853544;29;20336;-67
2022/06/13 02:36:34;;;;;;;3.50;2.57;;;;;12.30;101423.00;;;;4851946;29;20242;-67
2022/06/13 02:39:25;;;;;;;4.70;2.20;;;;;12.30;101421.00;;;;4852867;29;20223;-66
2022/06/13 02:42:20;;;;;;;4.87;2.57;;;;;12.30;101415.00;;;;4849535;29;20235;-67
2022/06/13 02:45:11;;;;;;;3.97;2.30;;;;;12.40;101427.00;;;;4849197;29;20373;-68
2022/06/13 02:48:06;;;;;;;5.10;3.03;;;;;12.40;101425.00;;;;4852651;29;20211;-67
2022/06/13 02:51:01;;;;;;;4.30;2.63;;;;;12.50;101424.00;;;;4848248;29;20231;-66
2022/06/13 02:53:51;;;;;;;6.03;2.80;;;;;12.40;101430.00;;;;4852497;29;20365;-68
2022/06/13 02:57:23;;;;;;;4.37;2.63;;;;;12.40;101426.00;;;;4852887;29;20211;-68
2022/06/13 03:00:12;;;;;;;5.07;2.80;;;;;12.50;101429.00;;;;4853332;29;20236;-68
2022/06/13 03:03:12;;;;;;;4.03;2.57;;;;;12.40;101432.00;;;;4851477;29;20267;-68
2022/06/13 03:06:01;;;;;;;4.80;2.70;;;;;12.50;101422.00;;;;4850429;29;20216;-67
2022/06/13 03:08:56;;;;;;;3.80;2.50;;;;;12.60;101416.00;;;;4853775;29;20288;-68
2022/06/13 03:11:55;;;;;;;4.23;2.87;;;;;12.60;101420.00;;;;4856536;29;20581;-68
2022/06/13 03:14:51;;;;;;;5.17;3.23;;;;;12.60;101417.00;;;;4856637;29;20215;-68
2022/06/13 03:17:46;;;;;;;4.10;2.67;;;;;12.70;101420.00;;;;4857038;29;20224;-68
2022/06/13 03:20:41;;;;;;;4.30;2.80;;;;;12.80;101429.00;;;;4855651;29;20215;-68
2022/06/13 03:23:36;;;;;;;6.07;2.73;;;;;12.80;101415.00;;;;4856605;29;20212;-68
2022/06/13 03:26:29;;;;;;;5.57;2.90;;;;;12.70;101416.00;;;;4856452;29;20277;-66
2022/06/13 03:29:24;;;;;;;3.87;2.63;;;;;12.70;101427.00;;;;4854986;29;20239;-68
2022/06/13 03:32:15;;;;;;;5.03;2.87;;;;;12.90;101438.00;;;;4854655;29;20969;-68
2022/06/13 03:35:06;;;;;;;4.13;3.03;;;;;13.00;101432.00;;;;4855231;29;20701;-67
2022/06/13 03:37:52;;;;;;;3.80;2.67;;;;;13.00;101444.00;;;;4854464;29;20272;-68
2022/06/13 03:40:42;;;;;;;6.73;2.87;;;;;13.00;101449.00;;;;4854570;29;20276;-66
2022/06/13 03:43:34;;;;;;;4.77;3.10;;;;;13.00;101460.00;;;;4853325;29;20361;-68
2022/06/13 03:46:28;;;;;;;6.37;3.10;;;;;13.10;101450.00;;;;4855086;29;20216;-67
2022/06/13 03:49:19;;;;;;;6.03;3.30;;;;;13.10;101461.00;;;;4852719;29;20305;-67
2022/06/13 03:52:10;;;;;;;6.73;3.13;;;;;13.10;101452.00;;;;4856081;29;20231;-67
2022/06/13 03:55:02;;;;;;;5.83;3.30;;;;;13.20;101454.00;;;;4854916;29;20692;-68
2022/06/13 03:57:54;;;;;;;4.60;3.10;;;;;13.20;101450.00;;;;4856962;29;20216;-67
2022/06/13 04:00:45;;;;;;;5.97;2.97;;;;;13.10;101444.00;;;;4855329;29;20231;-67
2022/06/13 04:03:32;;;;;;;5.83;3.23;;;;;13.20;101446.00;;;;4856736;29;20219;-68
2022/06/13 04:06:36;;;;;;;6.43;2.87;;;;;13.20;101441.00;;;;4853514;29;20656;-68
2022/06/13 04:09:28;;;;;;;4.37;3.10;;;;;13.30;101451.00;;;;4854403;29;20592;-68
2022/06/13 04:12:37;;;;;;;7.20;2.73;;;;;13.40;101447.00;;;;4856565;29;20369;-68
2022/06/13 04:15:36;;;;;;;6.67;3.10;;;;;13.40;101440.00;;;;4856108;29;20215;-68
2022/06/13 04:18:36;;;;;;;6.47;2.87;;;;;13.40;101435.00;;;;4852785;29;20216;-67
2022/06/13 04:21:30;;;;;;;6.57;3.83;;;;;13.50;101437.00;;;;4854303;29;20240;-66
2022/06/13 04:24:29;;;;;;;6.60;3.40;;;;;13.60;101442.00;;;;4856064;29;20286;-68
2022/06/13 04:27:22;;;;;;;6.43;3.40;;;;;13.70;101456.00;;;;4852227;29;20215;-67
2022/06/13 04:30:14;;;;;;;6.30;3.37;;;;;13.70;101458.00;;;;4854701;29;20227;-68
2022/06/13 04:33:04;;;;;;;5.90;3.40;;;;;13.70;101455.00;;;;4851897;29;20993;-68
2022/06/13 04:35:51;;;;;;;8.93;3.87;;;;;13.70;101453.00;;;;4846076;29;20237;-68
2022/06/13 04:38:40;;;;;;;5.63;3.13;;;;;13.80;101454.00;;;;4855207;29;20269;-68
2022/06/13 04:41:32;;;;;;;5.40;3.00;;;;;13.80;101450.00;;;;4851575;29;20405;-67
2022/06/13 04:44:22;;;;;;;7.77;2.60;;;;;13.80;101444.00;;;;4852652;29;20260;-69
2022/06/13 04:47:12;;;;;;;4.60;3.20;;;;;13.90;101468.00;;;;4850957;29;20321;-67
2022/06/13 04:50:00;;;;;;;4.07;3.00;;;;;13.90;101440.00;;;;4854835;29;20292;-67
2022/06/13 04:52:49;;;;;;;6.43;3.10;;;;;14.10;101441.00;;;;4854264;29;20227;-68
2022/06/13 04:55:41;;;;;;;6.87;3.40;;;;;14.10;101425.00;;;;4854437;29;20215;-68
2022/06/13 04:58:32;;;;;;;10.07;3.53;;;;;14.10;101438.00;;;;4852456;29;20223;-67
2022/06/13 05:01:22;;;;;;;10.00;3.60;;;;;14.00;101438.00;;;;4851218;29;20248;-68
2022/06/13 05:04:15;;;;;;;4.13;3.00;;;;;14.00;101440.00;;;;4852174;29;21138;-66
2022/06/13 05:07:10;;;;;;;6.47;3.10;;;;;14.00;101429.00;;;;4854686;29;20220;-67
2022/06/13 05:10:00;;;;;;;7.40;3.83;;;;;14.10;101433.00;;;;4854609;29;20231;-68
2022/06/13 05:12:48;;;;;;;7.37;3.57;;;;;14.20;101440.00;;;;4854139;29;20243;-66
2022/06/13 05:15:36;;;;;;;5.30;3.17;;;;;14.40;101455.00;;;;4853468;29;20214;-66
2022/06/13 05:18:43;;;;;;;5.07;3.20;;;;;14.50;101453.00;;;;4851508;29;20712;-67
2022/06/13 05:21:35;;;;;;;5.83;3.67;;;;;14.50;101464.00;;;;4854112;29;20709;-68
2022/06/13 05:24:40;;;;;;;8.30;3.40;;;;;14.60;101447.00;;;;4851613;29;20284;-67
2022/06/13 05:27:27;;;;;;;8.13;3.57;;;;;14.60;101468.00;;;;4851455;29;20207;-67
2022/06/13 05:30:15;;;;;;;7.33;3.60;;;;;14.70;101469.00;;;;4852562;29;20307;-67
2022/06/13 05:33:03;;;;;;;6.77;3.73;;;;;14.60;101467.00;;;;4853493;29;20281;-66
2022/06/13 05:35:53;;;;;;;7.37;3.83;;;;;14.70;101473.00;;;;4853094;29;20279;-67
2022/06/13 05:38:42;;;;;;;9.77;4.23;;;;;14.60;101471.00;;;;4853178;29;20362;-67
2022/06/13 05:41:28;;;;;;;6.63;3.47;;;;;14.60;101474.00;;;;4851214;29;20252;-68
2022/06/13 05:44:15;;;;;;;5.77;3.60;;;;;14.70;101467.00;;;;4854768;29;20219;-67
2022/06/13 05:47:01;;;;;;;9.63;4.53;;;;;14.80;101467.00;;;;4853024;29;20236;-68
2022/06/13 05:49:49;;;;;;;6.53;4.20;;;;;15.10;101472.00;;;;4852919;29;20837;-67
2022/06/13 05:52:35;;;;;;;7.80;4.00;;;;;204.60;224519.00;;;;4851872;29;20239;-68
2022/06/13 05:55:22;;;;;;;7.40;4.20;;;;;204.60;224519.00;;;;4850533;29;20220;-67
2022/06/13 05:58:19;;;;;;;10.33;4.47;;;;;204.60;224519.00;;;;4850594;29;20312;-67
2022/06/13 06:01:06;;;;;;;13.27;4.70;;;;;204.60;224519.00;;;;4854149;29;20232;-68
2022/06/13 06:03:53;;;;;;;6.93;4.07;;;;;204.60;224519.00;;;;4852871;29;20221;-67
2022/06/13 06:06:40;;;;;;;8.40;4.57;;;;;204.60;224519.00;;;;4852498;29;20217;-68
2022/06/13 06:09:27;;;;;;;8.53;4.80;;;;;204.60;224519.00;;;;4848981;29;20211;-68
2022/06/13 06:12:14;;;;;;;10.23;4.43;;;;;204.60;224519.00;;;;4846479;29;20236;-67
2022/06/13 06:15:00;;;;;;;10.53;4.10;;;;;204.60;224519.00;;;;4848506;29;20759;-68
2022/06/13 06:17:47;;;;;;;7.80;4.40;;;;;204.60;224519.00;;;;4847172;29;20220;-68
2022/06/13 06:20:33;;;;;;;9.03;4.27;;;;;204.60;224519.00;;;;4847383;29;20588;-68
2022/06/13 06:23:21;;;;;;;7.70;4.30;;;;;204.60;224519.00;;;;4846349;29;20948;-68
2022/06/13 06:26:08;;;;;;;7.13;4.50;;;;;204.60;224519.00;;;;4853948;29;20660;-67
2022/06/13 06:28:55;;;;;;;8.23;4.50;;;;;204.60;224519.00;;;;4853990;29;20304;-68
2022/06/13 06:31:41;;;;;;;6.67;4.50;;;;;204.60;224519.00;;;;4852380;29;20241;-67
2022/06/13 06:34:28;;;;;;;12.00;4.90;;;;;204.60;224519.00;;;;4849724;29;20227;-67
2022/06/13 06:37:14;;;;;;;11.50;4.43;;;;;204.60;224519.00;;;;4851453;29;21063;-67
2022/06/13 06:40:01;;;;;;;7.40;4.27;;;;;16.50;101500.00;;;;4853615;29;20221;-68
2022/06/13 06:42:48;;;;;;;10.03;4.97;;;;;16.80;101501.00;;;;4853952;29;20731;-67
2022/06/13 06:45:43;;;;;;;8.73;4.30;;;;;16.90;101504.00;;;;4854745;29;20863;-67
2022/06/13 06:48:29;;;;;;;11.03;4.40;;;;;17.00;101511.00;;;;4857123;29;20902;-68
2022/06/13 06:51:16;;;;;;;12.27;4.90;;;;;17.10;101505.00;;;;4856496;29;20252;-67
2022/06/13 07:00:13;;;;;;;10.73;4.60;;;;;17.30;101484.00;;;;4861823;29;20236;-68
2022/06/13 07:02:59;;;;;;;9.90;5.77;;;;;17.30;101496.00;;;;4851453;29;20334;-68
2022/06/13 07:05:46;;;;;;;9.80;4.60;;;;;17.40;101495.00;;;;4856479;29;20257;-67
2022/06/13 07:08:35;;;;;;;11.17;4.67;;;;;17.60;101503.00;;;;4857319;29;20227;-67
2022/06/13 07:14:32;;;;;;;16.90;4.83;;;;;17.70;101512.00;;;;4856245;29;20215;-68
2022/06/13 07:17:20;;;;;;;15.03;6.13;;;;;17.60;101509.00;;;;4853300;29;20268;-69
2022/06/13 07:20:08;;;;;;;11.40;5.33;;;;;17.50;101508.00;;;;4852232;29;20219;-68
2022/06/13 07:22:55;;;;;;;13.27;4.80;;;;;17.40;101520.00;;;;4854572;29;21029;-69
2022/06/13 07:25:41;;;;;;;9.03;4.57;;;;;17.30;101523.00;;;;4855914;29;20308;-69
2022/06/13 07:28:27;;;;;;;11.97;4.77;;;;;17.40;101514.00;;;;4854278;29;20219;-69
2022/06/13 07:31:20;;;;;;;9.90;4.27;;;;;17.70;101521.00;;;;4852266;29;20231;-68
2022/06/13 07:34:12;;;;;;;9.50;4.33;;;;;17.90;101508.00;;;;4855754;29;20237;-69
2022/06/13 07:37:07;;;;;;;13.60;5.20;;;;;18.20;101517.00;;;;4850770;29;20681;-68
2022/06/13 07:39:53;;;;;;;11.43;5.10;;;;;18.00;101519.00;;;;4856501;29;20248;-68
2022/06/13 07:42:43;;;;;;;10.33;4.60;;;;;18.10;101532.00;;;;4855733;29;20247;-69
2022/06/13 07:45:31;;;;;;;9.10;5.10;;;;;18.00;101530.00;;;;4856178;29;20312;-68
2022/06/13 07:48:36;;;;;;;13.83;4.80;;;;;18.20;101529.00;;;;4854706;29;20628;-68
2022/06/13 07:51:23;;;;;;;14.90;5.13;;;;;18.30;101533.00;;;;4854730;29;20275;-68
2022/06/13 07:54:09;;;;;;;7.77;4.50;;;;;18.30;101538.00;;;;4850707;29;20224;-68
2022/06/13 07:56:56;;;;;;;8.57;4.20;;;;;18.20;101537.00;;;;4849671;29;20660;-68
2022/06/13 07:59:42;;;;;;;8.93;4.63;;;;;18.30;101544.00;;;;4853642;29;20219;-68
2022/06/13 08:02:31;;;;;;;13.10;5.83;;;;;18.50;101534.00;;;;4855819;29;20243;-69
2022/06/13 08:05:19;;;;;;;10.60;4.20;;;;;18.60;101535.00;;;;4851980;29;20215;-68
2022/06/13 08:08:06;;;;;;;14.73;4.20;;;;;18.60;101528.00;;;;4856146;29;20272;-70
2022/06/13 08:10:54;;;;;;;6.53;4.13;;;;;18.90;101527.00;;;;4851896;29;20231;-68
2022/06/13 08:13:41;;;;;;;7.63;3.63;;;;;19.20;101529.00;;;;4854679;29;20593;-69
2022/06/13 08:16:27;;;;;;;7.93;4.00;;;;;19.20;101538.00;;;;4852349;29;20218;-70
2022/06/13 08:19:14;;;;;;;8.43;3.70;;;;;19.10;101536.00;;;;4853823;29;20228;-69
2022/06/13 08:22:02;;;;;;;11.87;4.23;;;;;18.90;101547.00;;;;4854991;29;20239;-69
2022/06/13 08:24:48;;;;;;;12.27;3.40;;;;;18.50;101538.00;;;;4854653;29;20215;-70
2022/06/13 08:27:34;;;;;;;10.77;3.50;;;;;18.50;101550.00;;;;4854671;29;20700;-69
2022/06/13 08:30:20;;;;;;;7.50;3.03;;;;;18.70;101548.00;;;;4855125;29;20218;-70
2022/06/13 08:33:07;;;;;;;6.00;2.97;;;;;19.00;101539.00;;;;4853134;29;20236;-69
2022/06/13 08:35:53;;;;;;;5.83;2.80;;;;;19.40;101551.00;;;;4855134;29;20283;-70
2022/06/13 08:38:41;;;;;;;5.30;2.70;;;;;19.50;101545.00;;;;4853402;29;20207;-69
2022/06/13 08:41:41;;;;;;;7.57;2.30;;;;;19.90;101555.00;;;;4854055;29;20342;-71
2022/06/13 08:44:48;;;;;;;3.00;2.33;;;;;20.10;101556.00;;;;4854286;29;20219;-69
2022/06/13 08:47:43;;;;;;;7.37;2.50;;;;;19.90;101546.00;;;;4853462;29;20219;-69
2022/06/13 08:50:37;;;;;;;7.20;2.30;;;;;20.00;101555.00;;;;4851971;29;20936;-72
2022/06/13 08:53:28;;;;;;;5.90;2.60;;;;;20.00;101552.00;;;;4854383;29;20815;-69
2022/06/13 08:56:19;;;;;;;5.53;2.40;;;;;20.20;101558.00;;;;4851565;29;20265;-70
2022/06/13 08:59:24;;;;;;;3.20;2.20;;;;;20.00;101558.00;;;;4851148;29;20758;-70
2022/06/13 09:02:16;;;;;;;7.97;2.27;;;;;20.00;101553.00;;;;4852790;29;20231;-69
2022/06/13 09:05:08;;;;;;;4.80;2.20;;;;;19.80;101559.00;;;;4849535;29;20224;-70
2022/06/13 09:07:59;;;;;;;2.73;2.10;;;;;19.40;101570.00;;;;4854413;29;20219;-67
2022/06/13 09:10:52;;;;;;;6.73;2.30;;;;;19.60;101571.00;;;;4854847;29;20216;-69
2022/06/13 09:13:44;;;;;;;3.67;2.43;;;;;19.80;101578.00;;;;4851630;29;20216;-70
2022/06/13 09:16:33;;;;;;;3.20;1.90;;;;;20.00;101579.00;;;;4854134;29;20223;-68
2022/06/13 09:19:24;;;;;;;9.97;2.10;;;;;20.40;101587.00;;;;4854952;29;20231;-68
2022/06/13 09:22:18;;;;;;;3.87;2.40;;;;;20.60;101585.00;;;;4849486;29;20352;-69
2022/06/13 09:25:11;;;;;;;7.50;1.97;;;;;20.90;101567.00;;;;4854647;29;20219;-69
2022/06/13 09:28:02;;;;;;;8.10;2.10;;;;;20.90;101576.00;;;;4853431;29;20578;-70
2022/06/13 09:30:55;;;;;;;2.93;1.80;;;;;21.10;101578.00;;;;4854325;29;20317;-69
2022/06/13 09:33:46;;;;;;;1.90;1.70;;;;;20.80;101573.00;;;;4854729;29;20364;-68
2022/06/13 09:36:36;;;;;;;2.77;1.70;;;;;20.40;101584.00;;;;4852103;29;20296;-69
2022/06/13 09:39:23;;;;;;;4.53;1.77;;;;;20.00;101597.00;;;;4854551;29;20238;-69
2022/06/13 09:42:23;;;;;;;2.40;1.80;;;;;19.70;101586.00;;;;4851875;29;20369;-69
2022/06/13 09:45:31;;;;;;;2.40;1.50;;;;;20.20;101593.00;;;;4851578;29;21577;-69
2022/06/13 09:48:29;;;;;;;2.10;1.80;;;;;20.70;101581.00;;;;4852845;29;20280;-69
2022/06/13 09:51:29;;;;;;;5.70;1.80;;;;;21.00;101594.00;;;;4849175;29;20263;-69
2022/06/13 09:54:23;;;;;;;3.80;1.83;;;;;21.20;101593.00;;;;4853487;29;20211;-69
2022/06/13 09:57:18;;;;;;;3.27;1.70;;;;;21.50;101584.00;;;;4854263;29;20305;-69
2022/06/13 10:00:12;;;;;;;2.57;1.43;;;;;21.20;101582.00;;;;4848220;29;20219;-68
2022/06/13 10:03:05;;;;;;;5.70;1.83;;;;;20.90;101592.00;;;;4854759;29;20893;-68
2022/06/13 10:06:03;;;;;;;4.73;1.80;;;;;20.50;101585.00;;;;4853113;29;20296;-68
2022/06/13 10:09:02;;;;;;;4.60;1.70;;;;;20.40;101585.00;;;;4854535;29;20223;-70
2022/06/13 10:12:03;;;;;;;5.30;1.80;;;;;20.50;101590.00;;;;4853406;29;20287;-69
2022/06/13 10:15:02;;;;;;;3.70;1.63;;;;;20.40;101599.00;;;;4854740;29;20613;-71
2022/06/13 10:18:09;;;;;;;2.00;1.60;;;;;20.70;101596.00;;;;4854115;29;20208;-70
2022/06/13 10:21:00;;;;;;;6.23;2.07;;;;;20.70;101616.00;;;;4850370;29;20689;-71
2022/06/13 10:23:53;;;;;;;1.83;1.63;;;;;20.90;101606.00;;;;4857551;29;20216;-71
2022/06/13 10:26:49;;;;;;;3.63;1.60;;;;;20.70;101603.00;;;;4857792;29;20215;-70
2022/06/13 10:30:07;;;;;;;3.03;1.80;;;;;20.80;101606.00;;;;4855156;29;20228;-70
2022/06/13 10:33:21;;;;;;;2.53;1.67;;;;;21.20;101606.00;;;;4856786;29;20232;-70
2022/06/13 10:36:18;;;;;;;3.97;2.03;;;;;21.30;101617.00;;;;4853421;29;20779;-71
2022/06/13 10:39:07;;;;;;;4.30;2.00;;;;;21.30;101607.00;;;;4857364;29;20219;-70
2022/06/13 10:42:02;;;;;;;3.10;2.10;;;;;21.60;101603.00;;;;4854472;29;20365;-69
2022/06/13 10:44:49;;;;;;;3.00;1.90;;;;;21.80;101603.00;;;;4857379;29;20288;-70
2022/06/13 10:47:40;;;;;;;3.20;1.90;;;;;22.20;101607.00;;;;4856930;29;20220;-70
2022/06/13 10:50:32;;;;;;;3.23;2.10;;;;;21.80;101593.00;;;;4857440;29;20351;-71
2022/06/13 10:53:24;;;;;;;5.50;2.17;;;;;21.40;101613.00;;;;4856390;29;20255;-71
2022/06/13 10:56:16;;;;;;;2.37;1.87;;;;;21.10;101618.00;;;;4853029;29;20221;-71
2022/06/13 10:59:02;;;;;;;2.57;1.80;;;;;20.70;101622.00;;;;4854030;29;20217;-70
2022/06/13 11:01:54;;;;;;;4.63;1.80;;;;;20.30;101625.00;;;;4857735;29;20232;-70
2022/06/13 11:04:40;;;;;;;3.47;1.80;;;;;20.10;101632.00;;;;4855229;29;20724;-71
2022/06/13 11:07:27;;;;;;;3.47;1.90;;;;;19.80;101638.00;;;;4858990;29;20211;-70
2022/06/13 11:10:30;;;;;;;4.10;1.80;;;;;19.60;101640.00;;;;4856845;29;20354;-71
2022/06/13 11:13:23;;;;;;;3.87;1.70;;;;;19.40;101641.00;;;;4854661;29;20243;-70
2022/06/13 11:22:40;;;;;;;4.93;1.87;;;;;19.30;101643.00;;;;4854563;29;20768;-70
2022/06/13 11:25:31;;;;;;;2.93;1.63;;;;;19.40;101650.00;;;;4857418;29;20788;-68
2022/06/13 11:28:21;;;;;;;2.23;1.63;;;;;19.50;101645.00;;;;4856047;29;20215;-70
2022/06/13 11:31:18;;;;;;;3.27;1.67;;;;;19.70;101646.00;;;;4855790;29;20727;-69
2022/06/13 11:34:30;;;;;;;1.73;1.63;;;;;20.10;101639.00;;;;4857177;29;20232;-68
2022/06/13 11:37:22;;;;;;;1.70;1.60;;;;;20.50;101635.00;;;;4852139;29;20223;-70
2022/06/13 11:40:17;;;;;;;2.83;1.70;;;;;21.10;101628.00;;;;4855466;29;20272;-69
2022/06/13 11:43:05;;;;;;;4.97;2.10;;;;;21.30;101636.00;;;;4855500;29;20243;-69
2022/06/13 11:45:58;;;;;;;5.13;1.60;;;;;22.30;101623.00;;;;4856126;29;20224;-70
2022/06/13 11:48:49;;;;;;;1.43;1.33;;;;;22.80;101624.00;;;;4855899;29;20309;-70
2022/06/13 11:51:42;;;;;;;1.70;1.60;;;;;22.80;101623.00;;;;4855151;29;20285;-69
2022/06/13 11:54:32;;;;;;;2.80;1.60;;;;;22.90;101627.00;;;;4852775;29;20265;-70
2022/06/13 11:57:34;;;;;;;1.43;1.20;;;;;22.30;101627.00;;;;4852275;29;20216;-68
2022/06/13 12:00:33;;;;;;;1.30;1.20;;;;;21.90;101633.00;;;;4853617;29;20222;-68
2022/06/13 12:03:21;;;;;;;1.83;1.20;;;;;21.80;101632.00;;;;4852902;29;20244;-69
2022/06/13 12:06:11;;;;;;;2.07;1.20;;;;;22.70;101645.00;;;;4854266;29;20213;-70
2022/06/13 12:09:04;;;;;;;3.43;1.07;;;;;23.60;101633.00;;;;4855511;29;20218;-70
2022/06/13 12:11:56;;;;;;;2.30;0.90;;;;;23.50;101639.00;;;;4856065;29;20236;-70
2022/06/13 12:14:43;;;;;;;1.20;1.07;;;;;22.90;101636.00;;;;4854802;29;20842;-70
2022/06/13 12:17:36;;;;;;;2.03;1.43;;;;;22.70;101644.00;;;;4855462;29;20243;-70
2022/06/13 12:20:28;;;;;;;1.63;1.37;;;;;22.30;101640.00;;;;4852546;29;20299;-70
2022/06/13 12:23:20;;;;;;;2.63;1.03;;;;;22.40;101631.00;;;;4854841;29;20250;-70
2022/06/13 12:26:13;;;;;;;1.60;1.10;;;;;21.80;101638.00;;;;4855958;29;20215;-70
2022/06/13 12:29:15;;;;;;;2.17;1.07;;;;;22.20;101634.00;;;;4856187;29;20250;-70
2022/06/13 12:32:12;;;;;;;2.10;1.27;;;;;22.60;101621.00;;;;4850040;29;20780;-69
2022/06/13 12:35:14;;;;;;;1.23;1.13;;;;;22.00;101641.00;;;;4853130;29;20282;-70
2022/06/13 12:38:12;;;;;;;1.37;1.10;;;;;21.80;101663.00;;;;4851484;29;20450;-69
2022/06/13 12:41:07;;;;;;;1.60;1.00;;;;;22.40;101651.00;;;;4848458;29;20578;-70
2022/06/13 12:44:05;;;;;;;5.37;1.20;;;;;23.20;101644.00;;;;4847776;29;20606;-70
2022/06/13 12:47:11;;;;;;;2.80;1.17;;;;;23.70;101651.00;;;;4852240;29;20221;-69
2022/06/13 12:50:12;;;;;;;1.57;1.00;;;;;23.70;101650.00;;;;4854226;29;20225;-70
2022/06/13 12:53:11;;;;;;;2.20;0.90;;;;;23.80;101659.00;;;;4848927;29;20230;-69
2022/06/13 12:56:08;;;;;;;2.40;1.10;;;;;23.90;101654.00;;;;4854768;29;20717;-68
2022/06/13 12:59:19;;;;;;;4.17;1.20;;;;;24.40;101662.00;;;;4851328;29;20581;-69
2022/06/13 13:02:19;;;;;;;2.37;1.07;;;;;24.70;101658.00;;;;4850081;29;20323;-68
2022/06/13 13:05:19;;;;;;;1.07;1.00;;;;;23.60;101671.00;;;;4849177;29;20219;-67
2022/06/13 13:08:20;;;;;;;1.60;0.83;;;;;22.70;101671.00;;;;4849273;29;20657;-68
2022/06/13 13:11:23;;;;;;;1.30;1.00;;;;;22.10;101677.00;;;;4851473;29;20216;-67
2022/06/13 13:14:20;;;;;;;0.90;0.90;;;;;22.00;101679.00;;;;4853329;29;20838;-68
2022/06/13 13:17:18;;;;;;;3.23;1.40;;;;;21.80;101681.00;;;;4855323;29;20228;-68
2022/06/13 13:20:09;;;;;;;1.10;1.00;;;;;22.70;101682.00;;;;4855084;29;20219;-69
2022/06/13 13:23:05;;;;;;;1.17;1.00;;;;;23.20;101657.00;;;;4851520;29;20247;-69
2022/06/13 13:26:18;;;;;;;1.53;1.00;;;;;23.90;101671.00;;;;4849303;29;20299;-70
2022/06/13 13:29:18;;;;;;;0.90;0.90;;;;;24.10;101667.00;;;;4848612;29;20300;-68
2022/06/13 13:32:14;;;;;;;1.53;0.90;;;;;24.60;101654.00;;;;4848774;29;20373;-69
2022/06/13 13:35:14;;;;;;;0.90;0.80;;;;;24.80;101666.00;;;;4852253;29;20235;-69
2022/06/13 13:38:08;;;;;;;1.00;0.93;;;;;24.80;101658.00;;;;4849483;29;20251;-69
2022/06/13 13:41:01;;;;;;;1.67;1.10;;;;;23.90;101655.00;;;;4847273;29;20236;-70
2022/06/13 13:43:51;;;;;;;2.97;1.07;;;;;23.70;101672.00;;;;4853698;29;20368;-70
2022/06/13 13:46:44;;;;;;;2.70;1.00;;;;;24.40;101682.00;;;;4853797;29;20212;-69
2022/06/13 13:49:33;;;;;;;2.93;1.00;;;;;24.60;101670.00;;;;4853005;29;20299;-69
2022/06/13 13:52:24;;;;;;;2.30;1.83;;;;;24.90;101662.00;;;;4853422;29;20756;-70
2022/06/13 13:55:18;;;;;;;1.67;1.10;;;;;25.10;101669.00;;;;4851355;29;20227;-70
2022/06/13 13:58:12;;;;;;;1.50;1.00;;;;;25.80;101668.00;;;;4851944;29;20572;-71
2022/06/13 14:01:14;;;;;;;3.42;0.98;;;;;25.20;101676.00;;;;4851908;29;20242;-70
2022/06/13 14:04:22;;;;;;;1.20;1.10;;;;;24.60;101671.00;;;;4851245;29;20206;-68
2022/06/13 14:07:33;;;;;;;2.40;1.08;;;;;24.60;101653.00;;;;4851755;29;20203;-71
2022/06/13 14:10:23;;;;;;;2.20;1.08;;;;;25.60;101678.00;;;;4842868;29;20219;-70
2022/06/13 14:13:13;;;;;;;1.83;1.00;;;;;25.80;101665.00;;;;4851703;29;20274;-69
2022/06/13 14:16:04;;;;;;;2.40;1.00;;;;;25.30;101668.00;;;;4854640;29;20228;-70
2022/06/13 14:19:02;;;;;;;1.55;1.10;;;;;23.90;101677.00;;;;4852936;29;20303;-70
2022/06/13 14:22:02;;;;;;;1.15;1.02;;;;;24.40;101679.00;;;;4852802;29;20627;-69
2022/06/13 14:24:57;;;;;;;2.55;1.33;;;;;27.00;101687.00;;;;4853584;29;20223;-70
2022/06/13 14:27:54;;;;;;;1.50;1.08;;;;;28.70;101684.00;;;;4852875;29;20320;-69
2022/06/13 14:31:06;;;;;;;4.45;1.10;;;;;26.40;101679.00;;;;4851194;29;20220;-69